createdAt,value
2023-07-25T00:04:52.725Z,99133.81
2023-07-25T00:09:55.993Z,99139.53
2023-07-25T00:14:58.988Z,99136.19
2023-07-25T00:20:03.357Z,99142.97
2023-07-25T00:25:07.076Z,99149.19
2023-07-25T00:30:10.823Z,99154.25
2023-07-25T00:35:17.091Z,99154.91
2023-07-25T00:40:20.184Z,99155.09
2023-07-25T00:45:23.469Z,99146.53
2023-07-25T00:50:27.697Z,99150.38
2023-07-25T00:55:30.570Z,99164.22
2023-07-25T01:00:34.022Z,99165.44
2023-07-25T01:05:41.262Z,99169.16
2023-07-25T01:10:44.299Z,99174.72
2023-07-25T01:15:47.231Z,99174.19
2023-07-25T01:20:51.530Z,99185.16
2023-07-25T01:25:55.735Z,99189.91
2023-07-25T01:30:58.863Z,99188.41
2023-07-25T01:36:01.872Z,99195.66
2023-07-25T01:41:06.311Z,99199.31
2023-07-25T01:46:09.383Z,99199.50
2023-07-25T01:51:14.553Z,99206.94
2023-07-25T01:56:18.742Z,99205.25
2023-07-25T02:01:21.862Z,99194.63
2023-07-25T02:06:24.898Z,99173.22
2023-07-25T02:11:29.526Z,99176.94
2023-07-25T02:16:35.033Z,99167.97
2023-07-25T02:21:37.908Z,99179.97
2023-07-25T02:29:48.876Z,99182.66
2023-07-25T02:34:51.688Z,99188.38
2023-07-25T02:39:54.606Z,99184.81
2023-07-25T02:44:58.893Z,99176.06
2023-07-25T02:50:01.808Z,99172.53
2023-07-25T02:55:06.504Z,99175.38
2023-07-25T03:00:11.847Z,99185.31
2023-07-25T03:05:16.297Z,99182.78
2023-07-25T03:10:19.189Z,99186.50
2023-07-25T03:15:23.542Z,99184.81
2023-07-25T03:20:26.409Z,99184.16
2023-07-25T03:25:29.221Z,99182.63
2023-07-25T03:30:33.444Z,99209.94
2023-07-25T03:35:36.265Z,99199.66
2023-07-25T03:40:39.175Z,99216.06
2023-07-25T03:45:43.488Z,99233.44
2023-07-25T03:50:46.703Z,99233.84
2023-07-25T03:55:49.680Z,99218.47
2023-07-25T04:00:53.933Z,99212.84
2023-07-25T04:05:56.855Z,99192.63
2023-07-25T04:10:59.663Z,99177.53
2023-07-25T04:16:04.082Z,99179.91
2023-07-25T04:21:06.904Z,99184.38
2023-07-25T04:26:09.760Z,99173.31
2023-07-25T04:31:13.920Z,99161.72
2023-07-25T04:36:16.839Z,99153.44
2023-07-25T04:41:19.706Z,99144.59
2023-07-25T04:46:24.130Z,99163.78
2023-07-25T04:51:27.062Z,99191.66
2023-07-25T04:56:29.947Z,99222.25
2023-07-25T05:01:35.362Z,99251.03
2023-07-25T05:06:38.537Z,99250.63
2023-07-25T05:11:41.691Z,99257.72
2023-07-25T05:16:46.040Z,99280.66
2023-07-25T05:21:49.168Z,99278.69
2023-07-25T05:26:52.011Z,99261.50
2023-07-25T05:31:56.354Z,99273.91
2023-07-25T05:36:59.773Z,99285.34
2023-07-25T05:42:02.732Z,99274.06
2023-07-25T05:47:09.710Z,99289.03
2023-07-25T05:52:14.103Z,99290.97
2023-07-25T05:57:17.411Z,99310.00
2023-07-25T06:02:22.645Z,99311.41
2023-07-25T06:07:26.634Z,99311.72
2023-07-25T06:12:31.330Z,99292.16
2023-07-25T06:17:36.366Z,99282.53
2023-07-25T06:22:44.717Z,99281.44
2023-07-25T06:27:52.675Z,99275.91
2023-07-25T06:32:58.018Z,99271.50
2023-07-25T06:38:03.035Z,99247.66
2023-07-25T06:43:07.366Z,99249.66
2023-07-25T06:48:14.403Z,99248.66
2023-07-25T06:53:22.001Z,99236.38
2023-07-25T06:58:32.784Z,99231.72
2023-07-25T07:03:40.818Z,99235.50
2023-07-25T07:08:45.189Z,99230.00
2023-07-25T07:13:50.089Z,99231.09
2023-07-25T07:18:54.656Z,99222.38
2023-07-25T07:23:57.728Z,99210.06
2023-07-25T07:29:00.827Z,99229.16
2023-07-25T07:34:16.156Z,99238.59
2023-07-25T07:39:19.261Z,99231.69
2023-07-25T07:44:25.074Z,99225.75
2023-07-25T07:49:29.860Z,99210.47
2023-07-25T07:54:34.291Z,99214.81
2023-07-25T07:59:38.482Z,99218.59
2023-07-25T08:04:42.982Z,99213.63
2023-07-25T08:09:45.954Z,99216.91
2023-07-25T08:14:48.898Z,99207.31
2023-07-25T08:19:53.333Z,99195.88
2023-07-25T08:24:56.294Z,99219.34
2023-07-25T08:29:59.419Z,99218.34
2023-07-25T08:35:04.070Z,99209.25
2023-07-25T08:40:09.865Z,99233.81
2023-07-25T08:45:13.650Z,99238.22
2023-07-25T08:50:18.307Z,99240.16
2023-07-25T08:55:27.366Z,99240.47
2023-07-25T09:00:39.636Z,99250.47
2023-07-25T09:05:46.857Z,99247.31
2023-07-25T09:10:50.674Z,99243.81
2023-07-25T09:15:54.328Z,99248.34
2023-07-25T09:21:02.097Z,99231.91
2023-07-25T09:26:08.134Z,99229.78
2023-07-25T09:31:11.426Z,99238.06
2023-07-25T09:36:17.175Z,99239.97
2023-07-25T09:41:20.689Z,99219.88
2023-07-25T09:46:28.373Z,99216.25
2023-07-25T09:51:35.541Z,99223.41
2023-07-25T09:56:40.035Z,99215.25
2023-07-25T10:01:43.418Z,99217.59
2023-07-25T10:06:51.739Z,99219.44
2023-07-25T10:11:56.589Z,99212.16
2023-07-25T10:17:00.042Z,99204.38
2023-07-25T10:22:04.508Z,99202.66
2023-07-25T10:27:10.127Z,99188.84
2023-07-25T10:32:18.088Z,99192.91
2023-07-25T10:37:23.475Z,99190.66
2023-07-25T10:42:43.283Z,99184.34
2023-07-25T10:47:55.813Z,99189.25
2023-07-25T10:53:00.313Z,99183.06
2023-07-25T10:58:10.089Z,99187.78
2023-07-25T11:03:28.930Z,99184.50
2023-07-25T11:08:33.384Z,99181.72
2023-07-25T11:13:37.318Z,99176.00
2023-07-25T11:18:51.402Z,99186.19
2023-07-25T11:24:04.724Z,99181.09
2023-07-25T11:29:09.869Z,99160.81
2023-07-25T11:34:13.288Z,99166.59
2023-07-25T11:39:17.604Z,99174.63
2023-07-25T11:44:21.137Z,99179.13
2023-07-25T11:49:40.245Z,99172.66
2023-07-25T11:54:48.578Z,99186.19
2023-07-25T11:59:54.832Z,99174.34
2023-07-25T12:04:58.134Z,99175.31
2023-07-25T12:10:02.334Z,99167.84
2023-07-25T12:15:08.077Z,99161.50
2023-07-25T12:20:17.965Z,99173.34
2023-07-25T12:25:23.103Z,99159.25
2023-07-25T12:30:27.012Z,99168.50
2023-07-25T12:35:30.218Z,99176.09
2023-07-25T12:40:35.027Z,99170.03
2023-07-25T12:45:38.430Z,99156.66
2023-07-25T12:50:42.166Z,99171.78
2023-07-25T12:55:46.715Z,99168.75
2023-07-25T13:00:49.839Z,99170.00
2023-07-25T13:05:53.007Z,99170.81
2023-07-25T13:10:57.454Z,99171.00
2023-07-25T13:16:00.685Z,99176.06
2023-07-25T13:21:03.769Z,99185.34
2023-07-25T13:26:08.368Z,99175.09
2023-07-25T13:31:11.256Z,99162.25
2023-07-25T13:36:14.506Z,99171.81
2023-07-25T13:41:19.018Z,99166.00
2023-07-25T13:46:22.022Z,99165.09
2023-07-25T13:51:25.183Z,99167.84
2023-07-25T13:56:29.423Z,99168.88
2023-07-25T14:01:32.717Z,99167.00
2023-07-25T14:06:36.421Z,99168.31
2023-07-25T14:11:40.905Z,99175.78
2023-07-25T14:16:43.872Z,99168.09
2023-07-25T14:21:47.524Z,99159.44
2023-07-25T14:26:51.856Z,99154.53
2023-07-25T14:31:54.734Z,99159.59
2023-07-25T14:36:57.688Z,99170.53
2023-07-25T14:42:02.020Z,99178.28
2023-07-25T14:47:05.932Z,99174.28
2023-07-25T14:52:14.453Z,99176.13
2023-07-25T14:57:24.336Z,99180.31
2023-07-25T15:02:27.310Z,99184.38
2023-07-25T15:07:30.296Z,99195.91
2023-07-25T15:12:34.614Z,99192.56
2023-07-25T15:17:38.193Z,99203.72
2023-07-25T15:22:41.244Z,99211.88
2023-07-25T15:27:45.557Z,99207.22
2023-07-25T15:32:48.639Z,99197.91
2023-07-25T15:37:51.615Z,99200.25
2023-07-25T15:42:55.895Z,99211.13
2023-07-25T15:47:58.884Z,99217.50
2023-07-25T15:53:02.134Z,99217.66
2023-07-25T15:58:06.486Z,99215.00
2023-07-25T16:03:09.648Z,99223.06
2023-07-25T16:08:12.660Z,99227.28
2023-07-25T16:13:17.142Z,99220.63
2023-07-25T16:18:20.504Z,99229.72
2023-07-25T16:23:23.695Z,99232.81
2023-07-25T16:28:28.246Z,99240.94
2023-07-25T16:33:31.156Z,99244.69
2023-07-25T16:38:35.345Z,99247.59
2023-07-25T16:43:39.570Z,99238.75
2023-07-25T16:48:42.705Z,99245.50
2023-07-25T16:53:46.125Z,99232.59
2023-07-25T16:58:50.573Z,99242.69
2023-07-25T17:03:53.724Z,99236.38
2023-07-25T17:08:57.669Z,99245.44
2023-07-25T17:14:02.005Z,99247.72
2023-07-25T17:19:05.001Z,99244.69
2023-07-25T17:24:08.544Z,99244.22
2023-07-25T17:29:13.506Z,99249.25
2023-07-25T17:34:16.554Z,99251.03
2023-07-25T17:39:19.646Z,99255.25
2023-07-25T17:44:23.922Z,99255.06
2023-07-25T17:49:26.988Z,99262.00
2023-07-25T17:54:29.882Z,99268.06
2023-07-25T17:59:34.585Z,99264.72
2023-07-25T18:04:38.361Z,99283.28
2023-07-25T18:09:41.464Z,99283.56
2023-07-25T18:14:45.939Z,99282.91
2023-07-25T18:19:48.961Z,99287.97
2023-07-25T18:24:51.964Z,99291.50
2023-07-25T18:29:56.292Z,99291.34
2023-07-25T18:34:59.288Z,99290.34
2023-07-25T18:40:02.431Z,99304.47
2023-07-25T18:45:11.485Z,99309.72
2023-07-25T18:50:16.210Z,99302.63
2023-07-25T18:55:19.762Z,99315.78
2023-07-25T19:00:23.934Z,99319.31
2023-07-25T19:05:26.833Z,99330.97
2023-07-25T19:10:30.164Z,99336.19
2023-07-25T19:15:35.038Z,99339.38
2023-07-25T19:20:38.048Z,99340.06
2023-07-25T19:25:40.849Z,99346.28
2023-07-25T19:30:45.851Z,99357.78
2023-07-25T19:35:53.113Z,99352.06
2023-07-25T19:40:56.383Z,99360.16
2023-07-25T19:46:05.606Z,99369.91
2023-07-25T19:51:11.901Z,99370.75
2023-07-25T19:56:14.746Z,99370.75
2023-07-25T20:01:19.545Z,99376.16
2023-07-25T20:06:23.943Z,99389.44
2023-07-25T20:11:26.930Z,99395.53
2023-07-25T20:16:31.586Z,99405.16
2023-07-25T20:21:34.974Z,99417.91
2023-07-25T20:26:40.772Z,99426.72
2023-07-25T20:31:45.828Z,99421.31
2023-07-25T20:36:48.749Z,99440.69
2023-07-25T20:41:52.097Z,99452.50
2023-07-25T20:46:56.377Z,99453.34
2023-07-25T20:51:59.411Z,99455.19
2023-07-25T20:57:02.345Z,99456.88
2023-07-25T21:02:07.348Z,99456.88
2023-07-25T21:07:10.643Z,99457.56
2023-07-25T21:12:14.031Z,99466.66
2023-07-25T21:17:18.501Z,99465.63
2023-07-25T21:22:21.390Z,99481.13
2023-07-25T21:27:24.346Z,99481.13
2023-07-25T21:32:28.670Z,99491.91
2023-07-25T21:37:31.590Z,99497.28
2023-07-25T21:42:34.440Z,99500.66
2023-07-25T21:47:38.915Z,99504.13
2023-07-25T21:52:41.958Z,99510.44
2023-07-25T21:57:45.142Z,99521.13
2023-07-25T22:02:49.757Z,99511.19
2023-07-25T22:07:52.781Z,99515.56
2023-07-25T22:12:55.659Z,99519.13
2023-07-25T22:17:59.995Z,99527.88
2023-07-25T22:23:02.952Z,99531.56
2023-07-25T22:28:06.998Z,99527.19
2023-07-25T22:33:11.284Z,99534.44
2023-07-25T22:38:14.218Z,99531.31
2023-07-25T22:43:17.256Z,99530.78
2023-07-25T22:48:21.542Z,99529.88
2023-07-25T22:53:24.342Z,99547.56
2023-07-25T22:58:27.251Z,99553.28
2023-07-25T23:03:31.629Z,99565.06
2023-07-25T23:08:34.618Z,99559.00
2023-07-25T23:13:37.428Z,99560.97
2023-07-25T23:18:41.648Z,99561.28
2023-07-25T23:23:44.743Z,99559.75
2023-07-25T23:28:47.579Z,99562.63
2023-07-25T23:33:51.906Z,99560.91
2023-07-25T23:38:54.732Z,99566.59
2023-07-25T23:43:57.606Z,99572.16
2023-07-25T23:49:01.785Z,99578.53
2023-07-25T23:54:05.068Z,99577.00
2023-07-25T23:59:07.891Z,99572.59
